createdAt,value
2023-01-27T06:50:47.834Z,100.00
2023-01-27T06:53:16.245Z,100.00
2023-01-27T06:55:45.135Z,100.00
2023-01-27T06:58:14.948Z,100.00
2023-01-27T07:00:43.193Z,100.00
2023-01-27T07:03:12.071Z,100.00
2023-01-27T07:05:41.420Z,100.00
2023-01-27T07:08:09.696Z,100.00
2023-01-27T07:10:39.260Z,100.00
2023-01-27T07:13:11.933Z,100.00
2023-01-27T07:15:40.168Z,100.00
2023-01-27T07:18:09.676Z,100.00
2023-01-27T07:20:38.885Z,100.00
2023-01-27T07:23:07.054Z,100.00
2023-01-27T07:25:35.828Z,100.00
2023-01-27T07:28:04.462Z,100.00
2023-01-27T07:30:34.057Z,100.00
2023-01-27T07:33:09.479Z,100.00
2023-01-27T07:35:38.705Z,100.00
2023-01-27T07:38:07.049Z,100.00
2023-01-27T07:40:35.879Z,100.00
2023-01-27T07:43:04.336Z,100.00
2023-01-27T07:45:36.633Z,100.00
2023-01-27T07:48:06.739Z,100.00
2023-01-27T07:50:36.140Z,100.00
2023-01-27T07:53:05.495Z,100.00
2023-01-27T07:55:33.992Z,100.00
2023-01-27T07:58:02.516Z,100.00
2023-01-27T08:00:31.500Z,100.00
2023-01-27T08:03:00.748Z,100.00
2023-01-27T08:05:29.899Z,100.00
2023-01-27T08:07:59.520Z,100.00
2023-01-27T08:10:27.646Z,100.00
2023-01-27T08:14:32.269Z,100.00
2023-01-27T08:17:00.466Z,100.00
2023-01-27T08:19:28.251Z,100.00
2023-01-27T08:21:55.016Z,100.00
2023-01-27T08:24:21.875Z,100.00
2023-01-27T08:26:48.657Z,100.00
2023-01-27T08:29:15.542Z,100.00
2023-01-27T08:39:26.100Z,100.00
2023-01-27T08:41:54.432Z,98.31
2023-01-27T08:44:24.342Z,98.86
2023-01-27T08:46:52.397Z,98.52
2023-01-27T08:49:21.543Z,99.31
2023-01-27T08:51:49.735Z,97.55
2023-01-27T08:54:18.463Z,97.20
2023-01-27T08:56:46.719Z,96.87
2023-01-27T08:59:15.564Z,96.32
2023-01-27T09:01:44.284Z,95.30
2023-01-27T09:04:12.392Z,95.28
2023-01-27T09:06:40.557Z,95.45
2023-01-27T09:09:11.456Z,94.98
2023-01-27T09:11:42.554Z,94.39
2023-01-27T09:14:12.272Z,93.74
2023-01-27T09:16:40.535Z,96.45
2023-01-27T09:19:09.464Z,93.88
2023-01-27T09:21:37.675Z,91.93
2023-01-27T09:24:06.207Z,94.11
2023-01-27T09:26:34.760Z,94.83
2023-01-27T09:29:02.801Z,92.03
2023-01-27T09:31:31.036Z,92.92
2023-01-27T09:33:59.711Z,91.72
2023-01-27T09:36:29.077Z,90.23
2023-01-27T09:39:08.865Z,91.26
2023-01-27T09:41:52.702Z,93.71
2023-01-27T09:44:33.435Z,90.39
2023-01-27T09:47:17.018Z,92.76
2023-01-27T09:50:21.278Z,96.12
2023-01-27T09:53:17.583Z,91.88
2023-01-27T09:55:57.147Z,90.28
2023-01-27T09:58:33.820Z,91.04
2023-01-27T10:01:24.318Z,91.13
2023-01-27T10:04:31.220Z,91.87
2023-01-27T10:07:30.694Z,90.83
2023-01-27T10:10:50.378Z,91.96
2023-01-27T10:13:42.006Z,92.37
2023-01-27T10:16:32.314Z,92.33
2023-01-27T10:19:09.685Z,92.11
2023-01-27T10:21:47.075Z,92.77
2023-01-27T10:24:21.748Z,92.59
2023-01-27T10:26:55.824Z,90.88
2023-01-27T10:29:53.697Z,97.32
2023-01-27T10:32:32.374Z,93.78
2023-01-27T10:35:16.272Z,92.80
2023-01-27T10:38:07.577Z,91.24
2023-01-27T10:40:48.137Z,90.25
2023-01-27T10:43:25.774Z,89.08
2023-01-27T10:46:16.650Z,89.68
2023-01-27T10:49:04.999Z,89.68
2023-01-27T10:51:35.846Z,89.94
2023-01-27T10:54:25.083Z,90.27
2023-01-27T10:57:02.853Z,90.30
2023-01-27T11:00:23.633Z,89.44
2023-01-27T11:02:54.143Z,88.73
2023-01-27T11:05:31.439Z,89.00
2023-01-27T11:08:05.208Z,89.24
2023-01-27T11:10:39.394Z,89.36
2023-01-27T11:13:12.542Z,88.97
2023-01-27T11:15:40.772Z,88.82
2023-01-27T11:18:33.378Z,88.02
2023-01-27T11:21:15.900Z,86.67
2023-01-27T11:23:49.303Z,88.36
2023-01-27T11:26:58.453Z,90.30
2023-01-27T11:29:36.538Z,88.70
2023-01-27T11:32:49.488Z,89.51
2023-01-27T11:35:17.747Z,90.01
2023-01-27T11:37:50.840Z,90.49
2023-01-27T11:40:29.863Z,91.07
2023-01-27T11:42:59.937Z,90.52
2023-01-27T11:45:34.085Z,91.42
2023-01-27T11:48:07.195Z,91.37
2023-01-27T11:50:36.903Z,90.79
2023-01-27T11:53:12.149Z,90.91
2023-01-27T11:55:50.278Z,91.30
2023-01-27T11:58:30.320Z,93.22
2023-01-27T12:01:11.901Z,92.36
2023-01-27T12:04:04.875Z,92.87
2023-01-27T12:06:40.560Z,92.57
2023-01-27T12:09:31.332Z,92.09
2023-01-27T12:12:15.494Z,93.04
2023-01-27T12:14:55.829Z,93.34
2023-01-27T12:17:39.168Z,93.98
2023-01-27T12:20:35.291Z,93.81
2023-01-27T12:23:16.519Z,94.47
2023-01-27T12:26:09.230Z,94.16
2023-01-27T12:28:49.891Z,95.08
2023-01-27T12:31:23.979Z,95.16
2023-01-27T12:34:08.447Z,95.98
2023-01-27T12:36:39.930Z,96.14
2023-01-27T12:39:28.437Z,95.99
2023-01-27T12:41:56.665Z,96.58
2023-01-27T12:44:27.176Z,96.51
2023-01-27T12:47:04.549Z,96.01
2023-01-27T12:49:40.567Z,96.72
2023-01-27T12:52:20.422Z,96.97
2023-01-27T12:54:51.647Z,96.42
2023-01-27T12:57:22.705Z,96.23
2023-01-27T12:59:55.457Z,96.06
2023-01-27T13:02:26.761Z,95.43
2023-01-27T13:04:59.693Z,94.95
2023-01-27T13:07:42.101Z,94.54
2023-01-27T13:10:21.226Z,93.96
2023-01-27T13:12:55.847Z,96.65
2023-01-27T13:15:28.617Z,96.20
2023-01-27T13:18:11.979Z,95.26
2023-01-27T13:20:44.473Z,94.92
2023-01-27T13:23:15.503Z,94.80
2023-01-27T13:25:53.085Z,95.35
2023-01-27T13:28:28.624Z,95.73
2023-01-27T13:31:04.213Z,98.03
2023-01-27T13:33:48.053Z,97.46
2023-01-27T13:36:50.322Z,97.25
2023-01-27T13:39:40.615Z,96.50
2023-01-27T13:42:29.780Z,96.92
2023-01-27T13:45:21.392Z,99.26
2023-01-27T13:48:04.324Z,96.99
2023-01-27T13:50:42.221Z,96.91
2023-01-27T13:53:18.405Z,96.47
2023-01-27T13:56:29.988Z,97.62
2023-01-27T13:59:37.334Z,97.45
2023-01-27T14:02:21.123Z,98.21
2023-01-27T14:05:11.209Z,98.67
2023-01-27T14:07:48.741Z,98.54
2023-01-27T14:10:20.031Z,97.91
2023-01-27T14:12:51.193Z,97.96
2023-01-27T14:15:43.120Z,98.52
2023-01-27T14:18:27.187Z,99.87
2023-01-27T14:21:40.369Z,99.87
2023-01-27T14:24:43.813Z,98.65
2023-01-27T14:27:38.719Z,98.70
2023-01-27T14:30:21.179Z,100.00
2023-01-27T14:33:06.918Z,100.00
2023-01-27T14:36:04.705Z,99.94
2023-01-27T14:38:43.718Z,99.86
2023-01-27T14:41:24.181Z,100.00
2023-01-27T14:44:21.338Z,100.00
2023-01-27T14:47:06.814Z,100.00
2023-01-27T14:50:07.253Z,100.00
2023-01-27T14:52:52.166Z,100.00
2023-01-27T14:55:45.368Z,100.00
2023-01-27T14:58:41.517Z,100.00
2023-01-27T15:01:25.148Z,100.00
2023-01-27T15:04:02.267Z,100.00
2023-01-27T15:06:49.393Z,100.00
2023-01-27T15:09:34.873Z,100.00
2023-01-27T15:12:09.575Z,100.00
2023-01-27T15:14:50.470Z,100.00
2023-01-27T15:17:31.108Z,100.00
2023-01-27T15:19:59.290Z,100.00
2023-01-27T15:23:00.144Z,100.00
2023-01-27T15:25:34.555Z,100.00
2023-01-27T15:28:04.318Z,100.00
2023-01-27T15:30:37.460Z,100.00
2023-01-27T15:33:43.520Z,100.00
2023-01-27T15:36:18.423Z,100.00
2023-01-27T15:39:08.765Z,100.00
2023-01-27T15:41:58.137Z,100.00
2023-01-27T15:44:32.338Z,100.00
2023-01-27T15:47:23.165Z,100.00
2023-01-27T15:49:59.402Z,100.00
2023-01-27T15:52:29.961Z,100.00
2023-01-27T15:55:01.537Z,100.00
2023-01-27T15:57:37.317Z,100.00
2023-01-27T16:00:28.987Z,100.00
2023-01-27T16:03:04.638Z,100.00
2023-01-27T16:05:42.029Z,100.00
2023-01-27T16:08:15.982Z,100.00
2023-01-27T16:10:45.345Z,100.00
2023-01-27T16:13:27.046Z,100.00
2023-01-27T16:16:18.817Z,100.00
2023-01-27T16:19:11.926Z,100.00
2023-01-27T16:21:57.759Z,100.00
2023-01-27T16:24:57.067Z,100.00
2023-01-27T16:32:45.305Z,100.00
2023-01-27T16:35:19.698Z,100.00
2023-01-27T16:38:16.914Z,100.00
2023-01-27T16:40:53.271Z,100.00
2023-01-27T16:43:24.955Z,100.00
2023-01-27T16:45:55.625Z,100.00
2023-01-27T16:48:35.916Z,100.00
2023-01-27T16:51:14.761Z,100.00
2023-01-27T16:53:50.353Z,100.00
2023-01-27T16:56:17.310Z,100.00
2023-01-27T16:58:48.173Z,100.00
2023-01-27T17:01:24.953Z,100.00
2023-01-27T17:03:57.885Z,100.00
2023-01-27T17:06:29.705Z,100.00
2023-01-27T17:08:56.556Z,100.00
2023-01-27T17:11:27.664Z,100.00
2023-01-27T17:14:02.870Z,100.00
2023-01-27T17:16:34.061Z,100.00
2023-01-27T17:19:09.169Z,100.00
2023-01-27T17:21:43.341Z,100.00
2023-01-27T17:24:32.827Z,100.00
2023-01-27T17:27:21.165Z,100.00
2023-01-27T17:29:51.087Z,100.00
2023-01-27T17:32:23.554Z,100.00
2023-01-27T17:34:56.733Z,100.00
2023-01-27T17:37:24.824Z,100.00
2023-01-27T17:39:57.670Z,100.00
2023-01-27T17:42:28.868Z,100.00
2023-01-27T17:45:29.492Z,100.00
2023-01-27T17:48:01.254Z,100.00
2023-01-27T17:50:36.736Z,100.00
2023-01-27T17:53:10.309Z,100.00
2023-01-27T17:55:37.975Z,100.00
2023-01-27T17:58:10.110Z,100.00
2023-01-27T18:00:43.351Z,100.00
2023-01-27T18:03:21.369Z,100.00
2023-01-27T18:05:52.392Z,100.00
2023-01-27T18:08:19.568Z,100.00
2023-01-27T18:10:46.281Z,100.00
2023-01-27T18:13:19.492Z,100.00
2023-01-27T18:15:58.742Z,100.00
2023-01-27T18:18:29.737Z,100.00
2023-01-27T18:21:05.499Z,100.00
2023-01-27T18:23:37.611Z,100.00
2023-01-27T18:26:08.541Z,100.00
2023-01-27T18:28:38.533Z,100.00
2023-01-27T18:31:17.279Z,100.00
2023-01-27T18:33:46.599Z,100.00
2023-01-27T18:36:22.404Z,100.00
2023-01-27T18:38:51.202Z,100.00
2023-01-27T18:41:27.342Z,100.00
2023-01-27T18:43:56.905Z,100.00
2023-01-27T18:46:25.719Z,100.00
2023-01-27T18:48:55.658Z,100.00
2023-01-27T18:51:23.879Z,100.00
2023-01-27T18:53:52.027Z,100.00
2023-01-27T18:56:20.142Z,100.00
2023-01-27T18:58:48.198Z,100.00
2023-01-27T19:01:21.705Z,100.00
2023-01-27T19:03:57.554Z,100.00
2023-01-27T19:06:26.602Z,100.00
2023-01-27T19:08:54.817Z,100.00
2023-01-27T19:11:23.019Z,100.00
2023-01-27T19:13:51.381Z,100.00
2023-01-27T19:16:19.872Z,100.00
2023-01-27T19:18:48.247Z,100.00
2023-01-27T19:21:17.026Z,100.00
2023-01-27T19:23:46.149Z,100.00
2023-01-27T19:26:17.670Z,100.00
2023-01-27T19:28:48.632Z,100.00
2023-01-27T19:31:16.892Z,100.00
2023-01-27T19:33:45.197Z,100.00
2023-01-27T19:36:28.909Z,100.00
2023-01-27T19:39:17.175Z,100.00
2023-01-27T19:41:46.263Z,100.00
2023-01-27T19:44:15.555Z,100.00
2023-01-27T19:46:43.784Z,100.00
2023-01-27T19:49:17.760Z,100.00
2023-01-27T19:51:46.100Z,100.00
2023-01-27T19:54:14.402Z,100.00
2023-01-27T19:56:43.188Z,100.00
2023-01-27T19:59:12.856Z,100.00
2023-01-27T20:01:40.892Z,100.00
2023-01-27T20:04:09.213Z,100.00
2023-01-27T20:06:38.158Z,100.00
2023-01-27T20:09:06.522Z,100.00
2023-01-27T20:11:39.110Z,100.00
2023-01-27T20:14:13.805Z,100.00
2023-01-27T20:16:42.951Z,100.00
2023-01-27T20:19:15.258Z,100.00
2023-01-27T20:21:45.957Z,100.00
2023-01-27T20:24:19.349Z,100.00
2023-01-27T20:26:47.828Z,100.00
2023-01-27T20:29:15.939Z,100.00
2023-01-27T20:31:44.297Z,100.00
2023-01-27T20:34:12.455Z,100.00
2023-01-27T20:36:40.545Z,100.00
2023-01-27T20:39:08.572Z,100.00
2023-01-27T20:41:36.788Z,100.00
2023-01-27T20:44:04.965Z,100.00
2023-01-27T20:46:33.129Z,100.00
2023-01-27T20:49:01.315Z,100.00
2023-01-27T20:51:29.583Z,100.00
2023-01-27T20:54:00.417Z,100.00
2023-01-27T20:56:28.802Z,100.00
2023-01-27T20:58:57.073Z,100.00
2023-01-27T21:01:25.557Z,100.00
2023-01-27T21:03:54.051Z,100.00
2023-01-27T21:06:22.358Z,100.00
2023-01-27T21:08:50.699Z,100.00
2023-01-27T21:11:20.690Z,100.00
2023-01-27T21:13:49.306Z,100.00
2023-01-27T21:16:18.045Z,100.00
2023-01-27T21:18:46.599Z,100.00
2023-01-27T21:21:29.575Z,100.00
2023-01-27T21:24:01.965Z,100.00
2023-01-27T21:26:32.798Z,100.00
2023-01-27T21:29:01.121Z,100.00
2023-01-27T21:31:30.537Z,100.00
2023-01-27T21:34:00.111Z,100.00
2023-01-27T21:36:29.219Z,100.00
2023-01-27T21:38:58.006Z,100.00
2023-01-27T21:41:45.012Z,100.00
2023-01-27T21:44:36.666Z,100.00
2023-01-27T21:47:06.470Z,100.00
2023-01-27T21:49:54.930Z,100.00
2023-01-27T21:52:24.306Z,100.00
2023-01-27T21:54:52.860Z,100.00
2023-01-27T21:57:21.382Z,100.00
2023-01-27T21:59:49.757Z,100.00
2023-01-27T22:02:17.975Z,100.00
2023-01-27T22:04:46.969Z,100.00
2023-01-27T22:07:17.394Z,100.00
2023-01-27T22:09:45.460Z,100.00
2023-01-27T22:12:15.961Z,100.00
2023-01-27T22:14:44.410Z,100.00
2023-01-27T22:17:12.756Z,100.00
2023-01-27T22:19:40.906Z,100.00
2023-01-27T22:22:12.259Z,100.00
2023-01-27T22:24:40.638Z,100.00
2023-01-27T22:27:08.694Z,100.00
2023-01-27T22:29:36.998Z,100.00
2023-01-27T22:32:05.982Z,100.00
2023-01-27T22:34:34.375Z,100.00
2023-01-27T22:37:03.149Z,100.00
2023-01-27T22:39:31.461Z,100.00
2023-01-27T22:41:59.730Z,100.00
2023-01-27T22:44:27.982Z,100.00
2023-01-27T22:46:56.092Z,100.00
2023-01-27T22:49:24.288Z,100.00
2023-01-27T22:51:52.542Z,100.00
2023-01-27T22:54:20.998Z,100.00
2023-01-27T22:56:49.268Z,100.00
2023-01-27T22:59:17.355Z,100.00
2023-01-27T23:01:45.609Z,100.00
2023-01-27T23:04:14.567Z,100.00
2023-01-27T23:06:42.689Z,100.00
2023-01-27T23:09:12.510Z,100.00
2023-01-27T23:11:40.693Z,100.00
2023-01-27T23:14:09.266Z,100.00
2023-01-27T23:16:37.538Z,100.00
2023-01-27T23:19:05.822Z,100.00
2023-01-27T23:21:34.511Z,100.00
2023-01-27T23:24:02.835Z,100.00
2023-01-27T23:26:31.474Z,100.00
2023-01-27T23:28:59.705Z,100.00
2023-01-27T23:31:27.950Z,100.00
2023-01-27T23:33:56.416Z,100.00
2023-01-27T23:36:26.280Z,100.00
2023-01-27T23:38:54.403Z,100.00
2023-01-27T23:41:23.146Z,100.00
2023-01-27T23:43:54.119Z,100.00
2023-01-27T23:46:25.804Z,100.00
2023-01-27T23:48:56.117Z,100.00
2023-01-27T23:51:24.499Z,100.00
2023-01-27T23:53:53.700Z,100.00
2023-01-27T23:56:21.915Z,100.00
2023-01-27T23:58:50.152Z,100.00
